sensor_id;sensor_type;location;lat;lon;timestamp;P1;durP1;ratioP1;P2;durP2;ratioP2
32216;SDS011;67098;51.140;4.088;2023-05-07T00:01:40;17.17;;;6.75;;
32216;SDS011;67098;51.140;4.088;2023-05-07T00:04:06;12.13;;;6.97;;
32216;SDS011;67098;51.140;4.088;2023-05-07T00:06:32;12.88;;;7.20;;
32216;SDS011;67098;51.140;4.088;2023-05-07T00:08:58;16.20;;;7.35;;
32216;SDS011;67098;51.140;4.088;2023-05-07T00:11:26;16.27;;;7.38;;
32216;SDS011;67098;51.140;4.088;2023-05-07T00:13:52;15.45;;;7.47;;
32216;SDS011;67098;51.140;4.088;2023-05-07T00:16:18;14.18;;;7.25;;
32216;SDS011;67098;51.140;4.088;2023-05-07T00:18:43;13.77;;;6.95;;
32216;SDS011;67098;51.140;4.088;2023-05-07T00:21:10;15.90;;;7.15;;
32216;SDS011;67098;51.140;4.088;2023-05-07T00:23:36;11.20;;;6.43;;
32216;SDS011;67098;51.140;4.088;2023-05-07T00:26:01;11.65;;;7.10;;
32216;SDS011;67098;51.140;4.088;2023-05-07T00:28:28;11.77;;;6.18;;
32216;SDS011;67098;51.140;4.088;2023-05-07T00:30:53;15.07;;;7.43;;
32216;SDS011;67098;51.140;4.088;2023-05-07T00:33:19;12.80;;;7.05;;
32216;SDS011;67098;51.140;4.088;2023-05-07T00:35:46;17.67;;;6.90;;
32216;SDS011;67098;51.140;4.088;2023-05-07T00:38:11;18.05;;;7.10;;
32216;SDS011;67098;51.140;4.088;2023-05-07T00:40:37;14.98;;;7.03;;
32216;SDS011;67098;51.140;4.088;2023-05-07T00:43:03;17.92;;;7.60;;
32216;SDS011;67098;51.140;4.088;2023-05-07T00:45:29;15.77;;;7.25;;
32216;SDS011;67098;51.140;4.088;2023-05-07T00:47:59;14.13;;;7.45;;
32216;SDS011;67098;51.140;4.088;2023-05-07T00:50:26;11.98;;;7.53;;
32216;SDS011;67098;51.140;4.088;2023-05-07T00:52:52;15.32;;;7.50;;
32216;SDS011;67098;51.140;4.088;2023-05-07T00:55:18;16.13;;;7.95;;
32216;SDS011;67098;51.140;4.088;2023-05-07T00:57:45;14.98;;;7.13;;
32216;SDS011;67098;51.140;4.088;2023-05-07T01:00:11;20.90;;;7.90;;
32216;SDS011;67098;51.140;4.088;2023-05-07T01:02:40;16.00;;;7.97;;
32216;SDS011;67098;51.140;4.088;2023-05-07T01:05:07;12.00;;;6.55;;
32216;SDS011;67098;51.140;4.088;2023-05-07T01:07:36;15.63;;;6.95;;
32216;SDS011;67098;51.140;4.088;2023-05-07T01:10:04;15.43;;;7.32;;
32216;SDS011;67098;51.140;4.088;2023-05-07T01:12:31;12.65;;;6.68;;
32216;SDS011;67098;51.140;4.088;2023-05-07T01:14:57;14.82;;;7.55;;
32216;SDS011;67098;51.140;4.088;2023-05-07T01:17:23;13.13;;;6.68;;
32216;SDS011;67098;51.140;4.088;2023-05-07T01:19:49;10.90;;;6.30;;
32216;SDS011;67098;51.140;4.088;2023-05-07T01:22:16;15.02;;;7.10;;
32216;SDS011;67098;51.140;4.088;2023-05-07T01:24:46;15.02;;;7.55;;
32216;SDS011;67098;51.140;4.088;2023-05-07T01:27:12;12.45;;;6.20;;
32216;SDS011;67098;51.140;4.088;2023-05-07T01:29:38;12.70;;;6.43;;
32216;SDS011;67098;51.140;4.088;2023-05-07T01:32:03;14.05;;;6.40;;
32216;SDS011;67098;51.140;4.088;2023-05-07T01:34:31;10.73;;;6.57;;
32216;SDS011;67098;51.140;4.088;2023-05-07T01:36:59;10.93;;;6.30;;
32216;SDS011;67098;51.140;4.088;2023-05-07T01:39:25;9.98;;;6.00;;
32216;SDS011;67098;51.140;4.088;2023-05-07T01:41:55;16.88;;;6.65;;
32216;SDS011;67098;51.140;4.088;2023-05-07T01:44:22;13.18;;;6.75;;
32216;SDS011;67098;51.140;4.088;2023-05-07T01:46:48;14.35;;;7.07;;
32216;SDS011;67098;51.140;4.088;2023-05-07T01:49:15;15.88;;;7.07;;
32216;SDS011;67098;51.140;4.088;2023-05-07T01:51:41;15.00;;;6.90;;
32216;SDS011;67098;51.140;4.088;2023-05-07T01:54:08;14.05;;;7.10;;
32216;SDS011;67098;51.140;4.088;2023-05-07T01:56:34;11.65;;;6.90;;
32216;SDS011;67098;51.140;4.088;2023-05-07T01:59:00;11.80;;;6.60;;
32216;SDS011;67098;51.140;4.088;2023-05-07T02:01:27;11.85;;;6.85;;
32216;SDS011;67098;51.140;4.088;2023-05-07T02:03:53;12.27;;;6.00;;
32216;SDS011;67098;51.140;4.088;2023-05-07T02:06:19;12.88;;;6.97;;
32216;SDS011;67098;51.140;4.088;2023-05-07T02:08:45;17.80;;;6.88;;
32216;SDS011;67098;51.140;4.088;2023-05-07T02:11:11;15.55;;;6.05;;
32216;SDS011;67098;51.140;4.088;2023-05-07T02:13:37;16.67;;;6.82;;
32216;SDS011;67098;51.140;4.088;2023-05-07T02:16:03;11.98;;;6.68;;
32216;SDS011;67098;51.140;4.088;2023-05-07T02:18:29;12.38;;;6.90;;
32216;SDS011;67098;51.140;4.088;2023-05-07T02:20:55;11.73;;;6.90;;
32216;SDS011;67098;51.140;4.088;2023-05-07T02:23:20;13.50;;;6.97;;
32216;SDS011;67098;51.140;4.088;2023-05-07T02:25:46;10.73;;;7.07;;
32216;SDS011;67098;51.140;4.088;2023-05-07T02:28:12;12.38;;;7.07;;
32216;SDS011;67098;51.140;4.088;2023-05-07T02:30:38;15.57;;;7.55;;
32216;SDS011;67098;51.140;4.088;2023-05-07T02:33:05;12.57;;;7.43;;
32216;SDS011;67098;51.140;4.088;2023-05-07T02:35:31;14.68;;;7.45;;
32216;SDS011;67098;51.140;4.088;2023-05-07T02:37:57;17.02;;;7.60;;
32216;SDS011;67098;51.140;4.088;2023-05-07T02:40:22;12.02;;;7.22;;
32216;SDS011;67098;51.140;4.088;2023-05-07T02:42:48;15.55;;;7.35;;
32216;SDS011;67098;51.140;4.088;2023-05-07T02:45:14;12.13;;;7.40;;
32216;SDS011;67098;51.140;4.088;2023-05-07T02:47:40;14.98;;;8.75;;
32216;SDS011;67098;51.140;4.088;2023-05-07T02:50:05;14.57;;;8.07;;
32216;SDS011;67098;51.140;4.088;2023-05-07T02:52:32;12.40;;;7.82;;
32216;SDS011;67098;51.140;4.088;2023-05-07T02:54:57;15.48;;;8.18;;
32216;SDS011;67098;51.140;4.088;2023-05-07T02:57:23;13.48;;;7.28;;
32216;SDS011;67098;51.140;4.088;2023-05-07T02:59:49;13.25;;;7.22;;
32216;SDS011;67098;51.140;4.088;2023-05-07T03:02:14;12.27;;;7.45;;
32216;SDS011;67098;51.140;4.088;2023-05-07T03:04:40;12.48;;;7.03;;
32216;SDS011;67098;51.140;4.088;2023-05-07T03:07:06;14.18;;;7.18;;
32216;SDS011;67098;51.140;4.088;2023-05-07T03:09:32;10.13;;;6.88;;
32216;SDS011;67098;51.140;4.088;2023-05-07T03:11:57;13.57;;;6.93;;
32216;SDS011;67098;51.140;4.088;2023-05-07T03:14:23;15.77;;;7.60;;
32216;SDS011;67098;51.140;4.088;2023-05-07T03:16:49;11.63;;;6.82;;
32216;SDS011;67098;51.140;4.088;2023-05-07T03:19:15;12.13;;;7.40;;
32216;SDS011;67098;51.140;4.088;2023-05-07T03:21:40;17.17;;;7.78;;
32216;SDS011;67098;51.140;4.088;2023-05-07T03:24:06;20.63;;;8.48;;
32216;SDS011;67098;51.140;4.088;2023-05-07T03:26:32;17.50;;;9.10;;
32216;SDS011;67098;51.140;4.088;2023-05-07T03:28:58;17.33;;;8.68;;
32216;SDS011;67098;51.140;4.088;2023-05-07T03:31:23;10.88;;;7.72;;
32216;SDS011;67098;51.140;4.088;2023-05-07T03:33:52;15.63;;;8.07;;
32216;SDS011;67098;51.140;4.088;2023-05-07T03:36:19;16.00;;;8.63;;
32216;SDS011;67098;51.140;4.088;2023-05-07T03:38:45;17.42;;;9.02;;
32216;SDS011;67098;51.140;4.088;2023-05-07T03:41:11;21.25;;;8.98;;
32216;SDS011;67098;51.140;4.088;2023-05-07T03:43:37;20.50;;;8.70;;
32216;SDS011;67098;51.140;4.088;2023-05-07T03:46:03;29.00;;;8.35;;
32216;SDS011;67098;51.140;4.088;2023-05-07T03:48:28;15.30;;;8.30;;
32216;SDS011;67098;51.140;4.088;2023-05-07T03:50:54;17.77;;;8.95;;
32216;SDS011;67098;51.140;4.088;2023-05-07T03:53:20;13.93;;;8.93;;
32216;SDS011;67098;51.140;4.088;2023-05-07T03:55:46;16.33;;;9.13;;
32216;SDS011;67098;51.140;4.088;2023-05-07T03:58:12;18.95;;;8.90;;
32216;SDS011;67098;51.140;4.088;2023-05-07T04:00:37;14.57;;;9.68;;
32216;SDS011;67098;51.140;4.088;2023-05-07T04:03:05;17.08;;;9.63;;
32216;SDS011;67098;51.140;4.088;2023-05-07T04:05:30;14.68;;;9.43;;
32216;SDS011;67098;51.140;4.088;2023-05-07T04:07:59;13.73;;;8.75;;
32216;SDS011;67098;51.140;4.088;2023-05-07T04:10:25;15.18;;;8.40;;
32216;SDS011;67098;51.140;4.088;2023-05-07T04:12:51;18.73;;;9.18;;
32216;SDS011;67098;51.140;4.088;2023-05-07T04:15:16;12.95;;;8.25;;
32216;SDS011;67098;51.140;4.088;2023-05-07T04:17:42;17.08;;;9.23;;
32216;SDS011;67098;51.140;4.088;2023-05-07T04:20:09;15.15;;;8.85;;
32216;SDS011;67098;51.140;4.088;2023-05-07T04:22:36;15.60;;;7.88;;
32216;SDS011;67098;51.140;4.088;2023-05-07T04:25:02;12.75;;;7.80;;
32216;SDS011;67098;51.140;4.088;2023-05-07T04:27:29;14.07;;;8.13;;
32216;SDS011;67098;51.140;4.088;2023-05-07T04:29:54;14.45;;;8.65;;
32216;SDS011;67098;51.140;4.088;2023-05-07T04:32:23;19.13;;;9.10;;
32216;SDS011;67098;51.140;4.088;2023-05-07T04:34:50;13.68;;;8.23;;
32216;SDS011;67098;51.140;4.088;2023-05-07T04:37:15;12.85;;;8.20;;
32216;SDS011;67098;51.140;4.088;2023-05-07T04:39:42;14.07;;;8.55;;
32216;SDS011;67098;51.140;4.088;2023-05-07T04:42:07;14.10;;;8.82;;
32216;SDS011;67098;51.140;4.088;2023-05-07T04:44:34;13.35;;;8.50;;
32216;SDS011;67098;51.140;4.088;2023-05-07T04:47:01;13.70;;;8.05;;
32216;SDS011;67098;51.140;4.088;2023-05-07T04:49:27;13.82;;;8.70;;
32216;SDS011;67098;51.140;4.088;2023-05-07T04:51:53;18.75;;;9.10;;
32216;SDS011;67098;51.140;4.088;2023-05-07T04:54:18;20.30;;;8.68;;
32216;SDS011;67098;51.140;4.088;2023-05-07T04:56:44;13.23;;;8.35;;
32216;SDS011;67098;51.140;4.088;2023-05-07T04:59:10;13.95;;;9.05;;
32216;SDS011;67098;51.140;4.088;2023-05-07T05:01:36;14.40;;;8.50;;
32216;SDS011;67098;51.140;4.088;2023-05-07T05:04:01;16.73;;;9.40;;
32216;SDS011;67098;51.140;4.088;2023-05-07T05:06:27;17.75;;;9.20;;
32216;SDS011;67098;51.140;4.088;2023-05-07T05:08:53;15.25;;;8.38;;
32216;SDS011;67098;51.140;4.088;2023-05-07T05:11:19;12.80;;;8.65;;
32216;SDS011;67098;51.140;4.088;2023-05-07T05:13:45;14.60;;;8.95;;
32216;SDS011;67098;51.140;4.088;2023-05-07T05:16:14;15.45;;;8.38;;
32216;SDS011;67098;51.140;4.088;2023-05-07T05:18:40;16.15;;;8.95;;
32216;SDS011;67098;51.140;4.088;2023-05-07T05:21:06;12.15;;;8.23;;
32216;SDS011;67098;51.140;4.088;2023-05-07T05:23:31;17.70;;;9.65;;
32216;SDS011;67098;51.140;4.088;2023-05-07T05:25:57;14.65;;;9.70;;
32216;SDS011;67098;51.140;4.088;2023-05-07T05:28:23;16.00;;;10.18;;
32216;SDS011;67098;51.140;4.088;2023-05-07T05:30:49;17.50;;;10.23;;
32216;SDS011;67098;51.140;4.088;2023-05-07T05:33:15;19.95;;;9.98;;
32216;SDS011;67098;51.140;4.088;2023-05-07T05:35:41;15.27;;;9.95;;
32216;SDS011;67098;51.140;4.088;2023-05-07T05:38:07;16.80;;;9.70;;
32216;SDS011;67098;51.140;4.088;2023-05-07T05:40:33;18.63;;;10.40;;
32216;SDS011;67098;51.140;4.088;2023-05-07T05:42:59;16.88;;;10.55;;
32216;SDS011;67098;51.140;4.088;2023-05-07T05:45:25;15.80;;;11.02;;
32216;SDS011;67098;51.140;4.088;2023-05-07T05:47:50;19.38;;;10.50;;
32216;SDS011;67098;51.140;4.088;2023-05-07T05:50:16;18.30;;;10.30;;
32216;SDS011;67098;51.140;4.088;2023-05-07T05:52:42;17.85;;;11.15;;
32216;SDS011;67098;51.140;4.088;2023-05-07T05:55:08;19.63;;;10.48;;
32216;SDS011;67098;51.140;4.088;2023-05-07T05:57:34;18.67;;;10.52;;
32216;SDS011;67098;51.140;4.088;2023-05-07T06:00:00;18.15;;;10.82;;
32216;SDS011;67098;51.140;4.088;2023-05-07T06:02:27;18.88;;;10.32;;
32216;SDS011;67098;51.140;4.088;2023-05-07T06:04:53;17.35;;;9.65;;
32216;SDS011;67098;51.140;4.088;2023-05-07T06:07:19;16.45;;;10.77;;
32216;SDS011;67098;51.140;4.088;2023-05-07T06:09:44;17.58;;;10.30;;
32216;SDS011;67098;51.140;4.088;2023-05-07T06:12:10;15.73;;;10.10;;
32216;SDS011;67098;51.140;4.088;2023-05-07T06:14:36;16.35;;;9.85;;
32216;SDS011;67098;51.140;4.088;2023-05-07T06:17:02;13.43;;;9.43;;
32216;SDS011;67098;51.140;4.088;2023-05-07T06:19:28;12.25;;;9.38;;
32216;SDS011;67098;51.140;4.088;2023-05-07T06:21:53;20.48;;;9.50;;
32216;SDS011;67098;51.140;4.088;2023-05-07T06:24:21;16.33;;;9.30;;
32216;SDS011;67098;51.140;4.088;2023-05-07T06:26:47;16.42;;;9.55;;
32216;SDS011;67098;51.140;4.088;2023-05-07T06:29:13;15.25;;;9.63;;
32216;SDS011;67098;51.140;4.088;2023-05-07T06:31:38;13.45;;;8.63;;
32216;SDS011;67098;51.140;4.088;2023-05-07T06:34:04;16.40;;;8.43;;
32216;SDS011;67098;51.140;4.088;2023-05-07T06:36:30;18.23;;;10.48;;
32216;SDS011;67098;51.140;4.088;2023-05-07T06:38:56;17.42;;;9.73;;
32216;SDS011;67098;51.140;4.088;2023-05-07T06:41:22;16.08;;;9.77;;
32216;SDS011;67098;51.140;4.088;2023-05-07T06:43:48;15.35;;;9.18;;
32216;SDS011;67098;51.140;4.088;2023-05-07T06:46:13;13.02;;;7.90;;
32216;SDS011;67098;51.140;4.088;2023-05-07T06:48:39;11.80;;;8.20;;
32216;SDS011;67098;51.140;4.088;2023-05-07T06:51:05;13.38;;;9.02;;
32216;SDS011;67098;51.140;4.088;2023-05-07T06:53:31;19.00;;;9.07;;
32216;SDS011;67098;51.140;4.088;2023-05-07T06:55:56;15.32;;;7.97;;
32216;SDS011;67098;51.140;4.088;2023-05-07T06:58:22;12.38;;;7.97;;
32216;SDS011;67098;51.140;4.088;2023-05-07T07:00:48;12.00;;;8.23;;
32216;SDS011;67098;51.140;4.088;2023-05-07T07:03:14;14.95;;;8.13;;
32216;SDS011;67098;51.140;4.088;2023-05-07T07:05:40;11.23;;;7.43;;
32216;SDS011;67098;51.140;4.088;2023-05-07T07:08:07;14.32;;;8.02;;
32216;SDS011;67098;51.140;4.088;2023-05-07T07:10:32;15.13;;;8.73;;
32216;SDS011;67098;51.140;4.088;2023-05-07T07:12:58;16.10;;;8.27;;
32216;SDS011;67098;51.140;4.088;2023-05-07T07:15:24;14.73;;;8.18;;
32216;SDS011;67098;51.140;4.088;2023-05-07T07:17:50;17.40;;;7.93;;
32216;SDS011;67098;51.140;4.088;2023-05-07T07:20:16;16.30;;;8.13;;
32216;SDS011;67098;51.140;4.088;2023-05-07T07:22:42;14.75;;;6.82;;
32216;SDS011;67098;51.140;4.088;2023-05-07T07:25:08;13.07;;;6.32;;
32216;SDS011;67098;51.140;4.088;2023-05-07T07:27:34;14.75;;;6.88;;
32216;SDS011;67098;51.140;4.088;2023-05-07T07:30:00;11.07;;;5.93;;
32216;SDS011;67098;51.140;4.088;2023-05-07T07:32:26;15.90;;;6.80;;
32216;SDS011;67098;51.140;4.088;2023-05-07T07:34:52;13.32;;;5.78;;
32216;SDS011;67098;51.140;4.088;2023-05-07T07:37:17;14.00;;;6.22;;
32216;SDS011;67098;51.140;4.088;2023-05-07T07:39:43;16.38;;;6.22;;
32216;SDS011;67098;51.140;4.088;2023-05-07T07:42:09;10.02;;;5.25;;
32216;SDS011;67098;51.140;4.088;2023-05-07T07:44:35;9.55;;;5.15;;
32216;SDS011;67098;51.140;4.088;2023-05-07T07:47:00;11.60;;;4.75;;
32216;SDS011;67098;51.140;4.088;2023-05-07T07:49:26;8.68;;;5.22;;
32216;SDS011;67098;51.140;4.088;2023-05-07T07:51:52;12.45;;;4.93;;
32216;SDS011;67098;51.140;4.088;2023-05-07T07:54:17;10.27;;;5.05;;
32216;SDS011;67098;51.140;4.088;2023-05-07T07:56:43;11.10;;;4.88;;
32216;SDS011;67098;51.140;4.088;2023-05-07T07:59:09;11.95;;;5.10;;
32216;SDS011;67098;51.140;4.088;2023-05-07T08:01:34;11.07;;;5.15;;
32216;SDS011;67098;51.140;4.088;2023-05-07T08:04:00;10.98;;;4.82;;
32216;SDS011;67098;51.140;4.088;2023-05-07T08:06:28;10.88;;;4.50;;
32216;SDS011;67098;51.140;4.088;2023-05-07T08:08:54;10.70;;;5.20;;
32216;SDS011;67098;51.140;4.088;2023-05-07T08:11:20;12.93;;;6.07;;
32216;SDS011;67098;51.140;4.088;2023-05-07T08:13:46;12.23;;;5.20;;
32216;SDS011;67098;51.140;4.088;2023-05-07T08:16:12;9.88;;;4.78;;
32216;SDS011;67098;51.140;4.088;2023-05-07T08:18:38;10.45;;;4.78;;
32216;SDS011;67098;51.140;4.088;2023-05-07T08:21:03;12.02;;;4.40;;
32216;SDS011;67098;51.140;4.088;2023-05-07T08:23:29;12.15;;;4.20;;
32216;SDS011;67098;51.140;4.088;2023-05-07T08:25:55;6.50;;;3.72;;
32216;SDS011;67098;51.140;4.088;2023-05-07T08:28:21;9.13;;;4.30;;
32216;SDS011;67098;51.140;4.088;2023-05-07T08:30:47;9.15;;;4.10;;
32216;SDS011;67098;51.140;4.088;2023-05-07T08:33:12;10.30;;;4.20;;
32216;SDS011;67098;51.140;4.088;2023-05-07T08:35:38;11.07;;;4.18;;
32216;SDS011;67098;51.140;4.088;2023-05-07T08:38:04;12.52;;;5.07;;
32216;SDS011;67098;51.140;4.088;2023-05-07T08:40:29;14.65;;;4.93;;
32216;SDS011;67098;51.140;4.088;2023-05-07T08:43:01;11.10;;;4.68;;
32216;SDS011;67098;51.140;4.088;2023-05-07T08:45:28;14.63;;;4.72;;
32216;SDS011;67098;51.140;4.088;2023-05-07T08:47:58;9.88;;;5.03;;
32216;SDS011;67098;51.140;4.088;2023-05-07T08:50:25;12.80;;;4.90;;
32216;SDS011;67098;51.140;4.088;2023-05-07T08:52:51;12.88;;;5.18;;
32216;SDS011;67098;51.140;4.088;2023-05-07T08:55:16;13.30;;;5.10;;
32216;SDS011;67098;51.140;4.088;2023-05-07T08:57:43;10.40;;;4.97;;
32216;SDS011;67098;51.140;4.088;2023-05-07T09:00:09;11.13;;;5.25;;
32216;SDS011;67098;51.140;4.088;2023-05-07T09:02:35;12.88;;;5.13;;
32216;SDS011;67098;51.140;4.088;2023-05-07T09:05:01;14.82;;;5.03;;
32216;SDS011;67098;51.140;4.088;2023-05-07T09:07:28;10.43;;;4.47;;
32216;SDS011;67098;51.140;4.088;2023-05-07T09:09:55;10.75;;;4.97;;
32216;SDS011;67098;51.140;4.088;2023-05-07T09:12:22;15.57;;;4.68;;
32216;SDS011;67098;51.140;4.088;2023-05-07T09:14:48;13.80;;;4.88;;
32216;SDS011;67098;51.140;4.088;2023-05-07T09:17:17;16.23;;;4.93;;
32216;SDS011;67098;51.140;4.088;2023-05-07T09:19:46;13.85;;;4.55;;
32216;SDS011;67098;51.140;4.088;2023-05-07T09:22:12;11.80;;;4.40;;
32216;SDS011;67098;51.140;4.088;2023-05-07T09:24:39;12.05;;;4.78;;
32216;SDS011;67098;51.140;4.088;2023-05-07T09:27:05;10.73;;;4.60;;
32216;SDS011;67098;51.140;4.088;2023-05-07T09:29:31;11.48;;;4.72;;
32216;SDS011;67098;51.140;4.088;2023-05-07T09:32:03;9.27;;;4.63;;
32216;SDS011;67098;51.140;4.088;2023-05-07T09:34:32;9.68;;;5.20;;
32216;SDS011;67098;51.140;4.088;2023-05-07T09:37:03;9.52;;;4.43;;
32216;SDS011;67098;51.140;4.088;2023-05-07T09:39:45;8.80;;;3.88;;
32216;SDS011;67098;51.140;4.088;2023-05-07T09:42:12;9.98;;;4.18;;
32216;SDS011;67098;51.140;4.088;2023-05-07T09:44:43;11.38;;;4.53;;
32216;SDS011;67098;51.140;4.088;2023-05-07T09:47:09;9.90;;;4.63;;
32216;SDS011;67098;51.140;4.088;2023-05-07T09:49:37;11.02;;;4.72;;
32216;SDS011;67098;51.140;4.088;2023-05-07T09:52:05;12.63;;;5.07;;
32216;SDS011;67098;51.140;4.088;2023-05-07T09:54:33;11.02;;;4.80;;
32216;SDS011;67098;51.140;4.088;2023-05-07T09:57:04;7.45;;;4.43;;
32216;SDS011;67098;51.140;4.088;2023-05-07T09:59:32;10.80;;;4.05;;
32216;SDS011;67098;51.140;4.088;2023-05-07T10:01:59;7.75;;;4.05;;
32216;SDS011;67098;51.140;4.088;2023-05-07T10:04:26;10.50;;;4.78;;
32216;SDS011;67098;51.140;4.088;2023-05-07T10:06:52;11.27;;;5.53;;
32216;SDS011;67098;51.140;4.088;2023-05-07T10:09:20;13.77;;;4.97;;
32216;SDS011;67098;51.140;4.088;2023-05-07T10:11:48;12.13;;;4.45;;
32216;SDS011;67098;51.140;4.088;2023-05-07T10:14:15;11.77;;;4.20;;
32216;SDS011;67098;51.140;4.088;2023-05-07T10:16:41;13.60;;;5.13;;
32216;SDS011;67098;51.140;4.088;2023-05-07T10:19:07;11.88;;;4.35;;
32216;SDS011;67098;51.140;4.088;2023-05-07T10:21:37;7.78;;;4.30;;
32216;SDS011;67098;51.140;4.088;2023-05-07T10:24:40;10.93;;;4.17;;
32216;SDS011;67098;51.140;4.088;2023-05-07T10:27:01;11.85;;;4.82;;
32216;SDS011;67098;51.140;4.088;2023-05-07T10:29:35;8.95;;;3.80;;
32216;SDS011;67098;51.140;4.088;2023-05-07T10:32:35;9.10;;;3.75;;
32216;SDS011;67098;51.140;4.088;2023-05-07T10:35:13;9.68;;;3.50;;
32216;SDS011;67098;51.140;4.088;2023-05-07T10:37:50;10.27;;;3.47;;
32216;SDS011;67098;51.140;4.088;2023-05-07T10:40:16;8.02;;;3.20;;
32216;SDS011;67098;51.140;4.088;2023-05-07T10:42:53;8.05;;;3.50;;
32216;SDS011;67098;51.140;4.088;2023-05-07T10:45:24;6.93;;;2.97;;
32216;SDS011;67098;51.140;4.088;2023-05-07T10:50:42;9.13;;;2.70;;
32216;SDS011;67098;51.140;4.088;2023-05-07T10:55:44;9.65;;;3.72;;
32216;SDS011;67098;51.140;4.088;2023-05-07T10:58:26;7.60;;;2.35;;
32216;SDS011;67098;51.140;4.088;2023-05-07T11:01:00;9.35;;;2.90;;
32216;SDS011;67098;51.140;4.088;2023-05-07T11:03:27;8.10;;;2.88;;
32216;SDS011;67098;51.140;4.088;2023-05-07T11:06:12;6.57;;;2.92;;
32216;SDS011;67098;51.140;4.088;2023-05-07T11:17:05;6.68;;;3.63;;
32216;SDS011;67098;51.140;4.088;2023-05-07T11:25:01;6.13;;;3.65;;
32216;SDS011;67098;51.140;4.088;2023-05-07T11:27:29;6.60;;;3.00;;
32216;SDS011;67098;51.140;4.088;2023-05-07T11:29:55;8.05;;;2.78;;
32216;SDS011;67098;51.140;4.088;2023-05-07T11:32:24;6.13;;;2.88;;
32216;SDS011;67098;51.140;4.088;2023-05-07T11:34:51;5.95;;;2.42;;
32216;SDS011;67098;51.140;4.088;2023-05-07T11:37:18;5.15;;;2.30;;
32216;SDS011;67098;51.140;4.088;2023-05-07T11:39:45;4.93;;;2.45;;
32216;SDS011;67098;51.140;4.088;2023-05-07T11:44:57;7.90;;;3.03;;
32216;SDS011;67098;51.140;4.088;2023-05-07T11:47:23;5.90;;;2.30;;
32216;SDS011;67098;51.140;4.088;2023-05-07T11:49:53;6.80;;;2.55;;
32216;SDS011;67098;51.140;4.088;2023-05-07T11:52:20;5.90;;;2.60;;
32216;SDS011;67098;51.140;4.088;2023-05-07T11:54:50;4.65;;;2.45;;
32216;SDS011;67098;51.140;4.088;2023-05-07T11:57:21;6.70;;;2.78;;
32216;SDS011;67098;51.140;4.088;2023-05-07T11:59:48;7.43;;;2.40;;
32216;SDS011;67098;51.140;4.088;2023-05-07T12:02:18;10.30;;;4.45;;
32216;SDS011;67098;51.140;4.088;2023-05-07T12:04:44;7.20;;;3.90;;
32216;SDS011;67098;51.140;4.088;2023-05-07T12:07:16;5.03;;;3.00;;
32216;SDS011;67098;51.140;4.088;2023-05-07T12:09:43;6.72;;;2.72;;
32216;SDS011;67098;51.140;4.088;2023-05-07T12:12:09;5.65;;;2.65;;
32216;SDS011;67098;51.140;4.088;2023-05-07T12:14:42;6.35;;;2.30;;
32216;SDS011;67098;51.140;4.088;2023-05-07T12:17:09;5.22;;;2.20;;
32216;SDS011;67098;51.140;4.088;2023-05-07T12:19:36;6.05;;;2.30;;
32216;SDS011;67098;51.140;4.088;2023-05-07T12:22:04;4.85;;;2.08;;
32216;SDS011;67098;51.140;4.088;2023-05-07T12:24:49;5.22;;;2.58;;
32216;SDS011;67098;51.140;4.088;2023-05-07T12:27:21;4.85;;;1.90;;
32216;SDS011;67098;51.140;4.088;2023-05-07T12:29:47;7.13;;;2.10;;
32216;SDS011;67098;51.140;4.088;2023-05-07T12:32:18;4.55;;;2.00;;
32216;SDS011;67098;51.140;4.088;2023-05-07T12:34:45;5.68;;;1.95;;
32216;SDS011;67098;51.140;4.088;2023-05-07T12:37:14;4.90;;;1.77;;
32216;SDS011;67098;51.140;4.088;2023-05-07T12:39:50;5.10;;;1.58;;
32216;SDS011;67098;51.140;4.088;2023-05-07T12:42:39;6.07;;;1.88;;
32216;SDS011;67098;51.140;4.088;2023-05-07T12:45:12;5.45;;;1.70;;
32216;SDS011;67098;51.140;4.088;2023-05-07T12:47:43;5.30;;;1.70;;
32216;SDS011;67098;51.140;4.088;2023-05-07T12:50:10;4.40;;;1.70;;
32216;SDS011;67098;51.140;4.088;2023-05-07T12:52:36;4.50;;;1.70;;
32216;SDS011;67098;51.140;4.088;2023-05-07T12:55:05;3.67;;;1.77;;
32216;SDS011;67098;51.140;4.088;2023-05-07T12:57:39;3.33;;;1.40;;
32216;SDS011;67098;51.140;4.088;2023-05-07T13:00:06;3.75;;;1.50;;
32216;SDS011;67098;51.140;4.088;2023-05-07T13:02:32;8.57;;;1.85;;
32216;SDS011;67098;51.140;4.088;2023-05-07T13:04:59;7.03;;;1.80;;
32216;SDS011;67098;51.140;4.088;2023-05-07T13:07:25;2.67;;;1.30;;
32216;SDS011;67098;51.140;4.088;2023-05-07T13:09:51;4.10;;;1.90;;
32216;SDS011;67098;51.140;4.088;2023-05-07T13:12:16;5.63;;;2.03;;
32216;SDS011;67098;51.140;4.088;2023-05-07T13:14:42;2.08;;;1.40;;
32216;SDS011;67098;51.140;4.088;2023-05-07T13:17:08;3.63;;;1.80;;
32216;SDS011;67098;51.140;4.088;2023-05-07T13:19:33;6.18;;;1.83;;
32216;SDS011;67098;51.140;4.088;2023-05-07T13:21:59;3.60;;;2.00;;
32216;SDS011;67098;51.140;4.088;2023-05-07T13:24:25;3.83;;;1.80;;
32216;SDS011;67098;51.140;4.088;2023-05-07T13:26:50;4.93;;;1.77;;
32216;SDS011;67098;51.140;4.088;2023-05-07T13:29:16;6.95;;;2.72;;
32216;SDS011;67098;51.140;4.088;2023-05-07T13:31:41;6.72;;;2.03;;
32216;SDS011;67098;51.140;4.088;2023-05-07T13:34:09;6.15;;;1.88;;
32216;SDS011;67098;51.140;4.088;2023-05-07T13:36:35;4.63;;;1.92;;
32216;SDS011;67098;51.140;4.088;2023-05-07T13:39:03;4.78;;;1.70;;
32216;SDS011;67098;51.140;4.088;2023-05-07T13:41:28;2.38;;;1.75;;
32216;SDS011;67098;51.140;4.088;2023-05-07T13:43:55;3.72;;;1.42;;
32216;SDS011;67098;51.140;4.088;2023-05-07T13:46:21;2.58;;;1.42;;
32216;SDS011;67098;51.140;4.088;2023-05-07T13:48:47;5.60;;;1.63;;
32216;SDS011;67098;51.140;4.088;2023-05-07T13:51:12;4.38;;;1.65;;
32216;SDS011;67098;51.140;4.088;2023-05-07T13:53:38;3.85;;;1.80;;
32216;SDS011;67098;51.140;4.088;2023-05-07T13:56:04;3.60;;;1.90;;
32216;SDS011;67098;51.140;4.088;2023-05-07T13:58:30;5.90;;;1.95;;
32216;SDS011;67098;51.140;4.088;2023-05-07T14:00:56;4.07;;;1.70;;
32216;SDS011;67098;51.140;4.088;2023-05-07T14:03:21;5.20;;;2.42;;
32216;SDS011;67098;51.140;4.088;2023-05-07T14:05:47;3.47;;;1.67;;
32216;SDS011;67098;51.140;4.088;2023-05-07T14:08:13;3.55;;;1.92;;
32216;SDS011;67098;51.140;4.088;2023-05-07T14:10:39;3.53;;;2.00;;
32216;SDS011;67098;51.140;4.088;2023-05-07T14:13:05;4.28;;;1.92;;
32216;SDS011;67098;51.140;4.088;2023-05-07T14:15:31;5.07;;;1.73;;
32216;SDS011;67098;51.140;4.088;2023-05-07T14:17:59;3.92;;;2.00;;
32216;SDS011;67098;51.140;4.088;2023-05-07T14:20:26;5.00;;;1.67;;
32216;SDS011;67098;51.140;4.088;2023-05-07T14:22:52;4.38;;;2.17;;
32216;SDS011;67098;51.140;4.088;2023-05-07T14:25:18;4.30;;;2.10;;
32216;SDS011;67098;51.140;4.088;2023-05-07T14:27:43;2.80;;;2.13;;
32216;SDS011;67098;51.140;4.088;2023-05-07T14:30:09;3.92;;;2.03;;
32216;SDS011;67098;51.140;4.088;2023-05-07T14:32:35;5.45;;;2.30;;
32216;SDS011;67098;51.140;4.088;2023-05-07T14:35:01;4.78;;;1.90;;
32216;SDS011;67098;51.140;4.088;2023-05-07T14:37:27;4.75;;;2.42;;
32216;SDS011;67098;51.140;4.088;2023-05-07T14:39:53;3.72;;;1.90;;
32216;SDS011;67098;51.140;4.088;2023-05-07T14:42:18;4.30;;;2.85;;
32216;SDS011;67098;51.140;4.088;2023-05-07T14:44:44;3.80;;;2.38;;
32216;SDS011;67098;51.140;4.088;2023-05-07T14:47:10;5.35;;;3.00;;
32216;SDS011;67098;51.140;4.088;2023-05-07T14:49:36;7.05;;;2.90;;
32216;SDS011;67098;51.140;4.088;2023-05-07T14:52:01;6.00;;;2.42;;
32216;SDS011;67098;51.140;4.088;2023-05-07T14:54:27;3.90;;;2.20;;
32216;SDS011;67098;51.140;4.088;2023-05-07T14:56:53;6.32;;;2.72;;
32216;SDS011;67098;51.140;4.088;2023-05-07T14:59:19;7.95;;;3.00;;